Flight Track Log - Related Links

Times and Time Zones

All times are in EDT time to prevent confusion due to time zone crossing. See the EJA396 flight status page for this flight to view local times or setup timezone preferences in your user account.

Time Position Orientation Groundspeed Altitude Reporting Facility
EDT Latitude Longitude Course Direction KTS MPH feet Rate Location/Type
Wed 11:46:14 AM 39.1167 -94.6000 237° Southwest 159 183 1,400  Level Kansas City TRACON
Wed 11:46:56 AM 39.1000 -94.6333 237° Southwest 181 208 3,300 2,111 Climbing Kansas City TRACON
Wed 11:48:02 AM 39.0833 -94.6986 252° West 193 222 5,200 2,156 Climbing Kansas City Center
Wed 11:49:04 AM 39.1106 -94.7672 297° West 255 293 7,900 3,194 Climbing Kansas City Center
Wed 11:50:06 AM 39.1981 -94.7761 355° North 316 364 11,800 3,366 Climbing Kansas City Center
Wed 11:51:07 AM 39.2950 -94.7922 353° North 352 405 14,800 2,832 Climbing Kansas City Center
Wed 11:52:11 AM 39.4011 -94.8133 351° North 384 442 17,700 3,242 Climbing Kansas City Center
Wed 11:53:11 AM 39.5325 -94.8394 351° North 398 458 21,500 3,194 Climbing Kansas City Center
Wed 11:54:15 AM 39.6450 -94.8619 351° North 408 470 24,300 2,688 Climbing Kansas City Center
Wed 11:55:16 AM 39.7594 -94.8844 351° North 415 478 27,100 2,640 Climbing Kansas City Center
Wed 11:56:20 AM 39.8728 -94.9069 351° North 416 479 29,800 2,160 Climbing Kansas City Center
Wed 11:57:21 AM 39.9847 -94.9392 348° North 415 478 31,600 1,082 Climbing Kansas City Center
Wed 11:58:22 AM 40.1156 -95.0278 333° Northwest 443 510 32,000 192 Climbing Kansas City Center
Wed 11:59:26 AM 40.2294 -95.1028 333° Northwest 455 524 32,000  Level Kansas City Center
Wed 12:00:28 PM 40.3400 -95.1772 333° Northwest 455 524 32,000 488 Level Kansas City Center
Wed 12:01:29 PM 40.4486 -95.2511 333° Northwest 447 514 33,000 493 Climbing Kansas City Center
Wed 12:02:42 PM 40.5889 -95.3431 334° Northwest 440 506 33,100 444 Climbing Minneapolis Center
Wed 12:03:44 PM 40.6989 -95.4169 333° Northwest 440 506 34,000 435 Climbing Minneapolis Center
Wed 12:04:46 PM 40.8089 -95.4931 332° Northwest 442 509 34,000  Level Minneapolis Center
Wed 12:05:48 PM 40.9192 -95.5678 333° Northwest 443 510 34,000  Level Minneapolis Center
Wed 12:06:49 PM 41.0500 -95.6575 333° Northwest 443 510 34,000  Level Minneapolis Center
Wed 12:07:51 PM 41.1458 -95.7225 333° Northwest 443 510 34,000  Level Minneapolis Center
Wed 12:08:53 PM 41.2889 -95.7847 342° North 446 513 34,000  Level Minneapolis Center
Wed 12:09:55 PM 41.4069 -95.8344 342° North 447 514 34,000  Level Minneapolis Center
Wed 12:10:56 PM 41.5267 -95.8831 343° North 447 514 34,000  Level Minneapolis Center
Wed 12:11:58 PM 41.6522 -95.9336 343° North 447 514 34,000  Level Minneapolis Center
Wed 12:13:00 PM 41.7703 -95.9825 343° North 448 516 34,000  Level Minneapolis Center
Wed 12:14:02 PM 41.8822 -96.0286 343° North 428 493 34,000  Level Minneapolis Center
Wed 12:15:03 PM 41.9961 -96.0758 343° North 427 491 34,000  Level Minneapolis Center
Wed 12:16:05 PM 42.1150 -96.1256 343° North 443 510 34,000  Level Minneapolis Center
Wed 12:17:07 PM 42.2367 -96.1778 342° North 454 522 34,000  Level Minneapolis Center
Wed 12:18:09 PM 42.3811 -96.2356 344° North 454 522 34,000  Level Minneapolis Center
Wed 12:19:10 PM 42.4994 -96.2864 342° North 449 517 34,000  Level Minneapolis Center
Wed 12:20:12 PM 42.6150 -96.3353 343° North 441 507 34,000  Level Minneapolis Center
Wed 12:21:14 PM 42.7344 -96.3869 342° North 423 487 34,000  Level Minneapolis Center
Wed 12:22:16 PM 42.8472 -96.4328 343° North 423 487 34,000  Level Minneapolis Center
Wed 12:23:17 PM 42.9636 -96.4833 342° North 433 498 34,000  Level Minneapolis Center
Wed 12:24:19 PM 43.0831 -96.5347 343° North 445 512 34,000  Level Minneapolis Center
Wed 12:25:21 PM 43.2036 -96.5858 343° North 449 517 34,000  Level Minneapolis Center
Wed 12:26:22 PM 43.3253 -96.6383 343° North 454 522 34,000  Level Minneapolis Center
Wed 12:27:24 PM 43.4469 -96.6931 342° North 456 525 34,000  Level Minneapolis Center
Wed 12:28:26 PM 43.5947 -96.7556 343° North 458 527 34,000  Level Minneapolis Center
Wed 12:29:28 PM 43.7250 -96.7822 352° North 474 545 34,000  Level Minneapolis Center
Wed 12:30:29 PM 43.8633 -96.7856 359° North 493 567 34,000  Level Minneapolis Center
Wed 12:31:31 PM 44.0025 -96.7889 359° North 497 572 34,000  Level Minneapolis Center
Wed 12:32:33 PM 44.1403 -96.7917 359° North 496 571 34,000  Level Minneapolis Center
Wed 12:33:35 PM 44.2781 -96.7944 359° North 493 567 34,000  Level Minneapolis Center
Wed 12:34:37 PM 44.4158 -96.7986 359° North 492 566 34,000  Level Minneapolis Center
Wed 12:35:39 PM 44.5531 -96.8031 359° North 492 566 34,000  Level Minneapolis Center
Wed 12:36:40 PM 44.6900 -96.8042 360° North 492 566 34,000  Level Minneapolis Center
Wed 12:37:42 PM 44.8531 -96.8083 359° North 490 564 34,000  Level Minneapolis Center
Wed 12:38:44 PM 44.9878 -96.8097 360° North 489 563 34,000 -48 Level Minneapolis Center
Wed 12:39:46 PM 45.1233 -96.8144 359° North 487 560 33,900 -774 Descending Minneapolis Center
Wed 12:40:48 PM 45.2561 -96.8172 359° North 483 556 32,400 -1,452 Descending Minneapolis Center
Wed 12:41:50 PM 45.3872 -96.8200 359° North 474 545 30,900 -1,452 Descending Minneapolis Center
Wed 12:42:52 PM 45.5197 -96.8244 359° North 474 545 29,400 -1,452 Descending Minneapolis Center
Wed 12:43:54 PM 45.6536 -96.8261 360° North 481 554 27,900 -1,597 Descending Minneapolis Center
Wed 12:44:56 PM 45.7997 -96.8297 359° North 438 504 26,100 -1,597 Descending Minneapolis Center
Wed 12:45:58 PM 45.9019 -96.7681 23° Northeast 409 471 24,600 -1,016 Descending Minneapolis Center
Wed 12:47:00 PM 46.0047 -96.6911 27° Northeast 412 474 24,000 -1,016 Descending Minneapolis Center
Wed 12:48:02 PM 46.1200 -96.6417 17° North 428 493 22,500 -1,742 Descending Minneapolis Center
Wed 12:49:04 PM 46.2258 -96.6733 348° North 410 472 20,400 -2,226 Descending Minneapolis Center
Wed 12:50:06 PM 46.3517 -96.7147 347° North 396 456 17,900 -2,565 Descending Minneapolis Center
Wed 12:51:08 PM 46.4483 -96.7486 346° North 335 386 15,100 -3,000 Descending Minneapolis Center
Wed 12:52:10 PM 46.5378 -96.7786 347° North 315 362 11,700 -2,710 Descending Minneapolis Center
Wed 12:53:12 PM 46.6206 -96.8069 347° North 297 342 9,500 -2,146 Descending Minneapolis Center
Wed 12:54:13 PM 46.6981 -96.8214 353° North 277 319 7,300 -2,585 Descending Minneapolis Center
Wed 12:55:15 PM 46.7786 -96.8197 North 278 320 4,200 -2,256 Descending Minneapolis Center
Wed 12:56:18 PM 46.8353 -96.8172 North 207 238 2,600 -1,296 Descending Minneapolis Center
Wed 12:57:20 PM 46.8831 -96.8167 360° North 167 192 1,500 -1,065 Descending Minneapolis Center
Wed 12:59:00 PM 46.9167 -96.8000 13° North  Level FlightAware Approximate
Wed 01:06:00 PM 46.9207 -96.8158 13° North  Level Estimated

Login

Don't have an account? Register now (free) for customized features, flight alerts, and more!